Impacts TAF Board
For situational awareness. Not to be used for flight planning purposes.
IDs:

KSAT - San Antonio Intl, TX, US

Issued at 2333 UTC 06 Jun 2020
Updated at 0359 UTC 07 Jun 2020
Potential Impact None Slight Moderate High
Time0351Z 07/04Z 07/05Z 07/06Z 07/07Z 07/08Z 07/09Z 07/10Z 07/11Z 07/12Z 07/13Z 07/14Z 07/15Z 07/16Z>>
Type OBS PRVL PRVL PRVL PRVL PRVL PRVL PRVL PRVL PRVL PRVL PRVL PRVL PRVL
VIS 10 >6 >6 >6 >6 >6 >6 >6 >6 >6 >6 >6 >6 >6
CIG -- -- -- -- -- -- -- -- -- -- -- -- -- --
Cover FEW FEW FEW FEW FEW FEW FEW FEW FEW FEW FEW FEW FEW FEW
FltCat VFR VFR VFR VFR VFR VFR VFR VFR VFR VFR VFR VFR VFR VFR
WX -- -- -- -- -- -- -- -- -- -- -- -- -- --
WDir VRB 100 100 350 350 350 350 350 350 350 350 350 30 30
WSpd 0 7 7 4 4 4 4 4 4 4 4 4 8 8
WGst -- -- -- -- -- -- -- -- -- -- -- -- -- --
R04/22
XWnd VRB -6 -6 3 3 3 3 3 3 3 3 3 2 2
HWnd VRB 4 4 3 3 3 3 3 3 3 3 3 8 8
R12/30
XWnd VRB 4 4 2 2 2 2 2 2 2 2 2 8 8
HWnd VRB 6 6 -3 -3 -3 -3 -3 -3 -3 -3 -3 -2 -2
Raw TAF
KSAT 062333Z 0700/0806 10007KT P6SM FEW050
  FM070600 35004KT P6SM FEW250
  FM071500 03008KT P6SM FEW040


Raw METAR
KSAT 070351Z 00000KT 10SM FEW250 29/19 A2983 RMK AO2 SLP081 T02890189
KSAT 070251Z 13005KT 10SM FEW250 29/19 A2982 RMK AO2 SLP078 T02890194 53002
KSAT 070151Z 11005KT 10SM FEW250 29/19 A2981 RMK AO2 SLP076 T02940194
KSAT 070051Z 10005KT 10SM FEW065 FEW250 32/19 A2981 RMK AO2 SLP075 T03170194

METAR Board
Radar Display
Forecast Discussion
For situational awareness. Not to be used for flight planning purposes.